createdAt,value
2022-09-06T00:01:13.158Z,102753.90
2022-09-06T00:03:41.903Z,102741.27
2022-09-06T00:06:15.611Z,102738.52
2022-09-06T00:08:44.459Z,102755.02
2022-09-06T00:11:13.655Z,102752.73
2022-09-06T00:13:41.977Z,102751.23
2022-09-06T00:16:13.531Z,102748.95
2022-09-06T00:18:43.660Z,102738.20
2022-09-06T00:21:22.039Z,102748.44
2022-09-06T00:23:51.535Z,102746.95
2022-09-06T00:26:21.331Z,102736.30
2022-09-06T00:28:49.982Z,102747.73
2022-09-06T00:31:24.144Z,102748.95
2022-09-06T00:33:53.259Z,102748.77
2022-09-06T00:36:22.815Z,102750.55
2022-09-06T00:38:51.418Z,102734.90
2022-09-06T00:41:20.096Z,102749.21
2022-09-06T00:43:48.718Z,102746.26
2022-09-06T00:46:25.773Z,102749.10
2022-09-06T00:49:00.986Z,102751.40
2022-09-06T00:51:31.198Z,102747.14
2022-09-06T00:54:02.383Z,102742.27
2022-09-06T00:56:32.527Z,102741.41
2022-09-06T00:59:02.195Z,102739.19
2022-09-06T01:01:31.049Z,102725.62
2022-09-06T01:04:00.298Z,102742.15
2022-09-06T01:07:05.694Z,102744.45
2022-09-06T01:10:18.818Z,102746.94
2022-09-06T01:12:56.197Z,102741.60
2022-09-06T01:15:53.925Z,102735.59
2022-09-06T01:18:48.491Z,102724.39
2022-09-06T01:21:35.235Z,102740.45
2022-09-06T01:24:09.725Z,102722.79
2022-09-06T01:27:06.517Z,102748.13
2022-09-06T01:29:43.913Z,102748.34
2022-09-06T01:32:35.709Z,102744.72
2022-09-06T01:35:33.267Z,102745.52
2022-09-06T01:38:03.849Z,102742.00
2022-09-06T01:40:36.704Z,102738.42
2022-09-06T01:43:11.100Z,102736.64
2022-09-06T01:46:22.825Z,102734.96
2022-09-06T01:49:42.018Z,102732.89
2022-09-06T01:52:20.675Z,102734.38
2022-09-06T01:55:15.074Z,102716.23
2022-09-06T01:57:50.705Z,102736.70
2022-09-06T02:00:22.723Z,102736.75
2022-09-06T02:02:54.955Z,102736.23
2022-09-06T02:05:32.077Z,102737.10
2022-09-06T02:08:16.382Z,102740.67
2022-09-06T02:11:01.854Z,102745.92
2022-09-06T02:13:36.938Z,102747.30
2022-09-06T02:16:08.094Z,102750.79
2022-09-06T02:18:43.193Z,102751.23
2022-09-06T02:21:17.815Z,102754.58
2022-09-06T02:23:48.897Z,102748.29
2022-09-06T02:26:24.709Z,102751.34
2022-09-06T02:28:53.429Z,102749.65
2022-09-06T02:31:31.973Z,102701.39
2022-09-06T02:34:01.568Z,102746.98
2022-09-06T02:36:32.028Z,102747.33
2022-09-06T02:39:02.375Z,102749.36
2022-09-06T02:41:31.239Z,102735.80
2022-09-06T02:43:59.598Z,102751.31
2022-09-06T02:46:27.969Z,102748.70
2022-09-06T02:48:56.401Z,102742.10
2022-09-06T02:51:24.721Z,102739.94
2022-09-06T02:53:53.149Z,102738.55
2022-09-06T02:56:21.497Z,102734.80
2022-09-06T02:58:50.161Z,102732.40
2022-09-06T03:01:18.518Z,102734.48
2022-09-06T03:03:46.919Z,102736.65
2022-09-06T03:06:15.188Z,102701.52
2022-09-06T03:08:43.684Z,102735.25
2022-09-06T03:11:12.063Z,102737.08
2022-09-06T03:13:40.507Z,102736.72
2022-09-06T03:16:09.279Z,102701.02
2022-09-06T03:18:37.616Z,102740.11
2022-09-06T03:21:06.124Z,102740.44
2022-09-06T03:23:34.580Z,102737.19
2022-09-06T03:26:02.903Z,102737.15
2022-09-06T03:28:31.347Z,102739.02
2022-09-06T03:30:59.837Z,102738.05
2022-09-06T03:33:28.363Z,102738.98
2022-09-06T03:35:59.244Z,102737.56
2022-09-06T03:38:28.747Z,102735.98
2022-09-06T03:40:57.387Z,102735.13
2022-09-06T03:43:26.907Z,102732.80
2022-09-06T03:45:57.934Z,102737.89
2022-09-06T03:48:29.008Z,102739.34
2022-09-06T03:50:59.331Z,102738.81
2022-09-06T03:53:29.097Z,102743.60
2022-09-06T03:55:58.468Z,102742.43
2022-09-06T03:58:31.195Z,102742.08
2022-09-06T04:01:05.629Z,102740.52
2022-09-06T04:03:35.071Z,102739.71
2022-09-06T04:06:04.595Z,102737.48
2022-09-06T04:08:34.500Z,102734.11
2022-09-06T04:11:03.279Z,102733.32
2022-09-06T04:13:32.933Z,102731.80
2022-09-06T04:16:01.743Z,102732.38
2022-09-06T04:18:30.427Z,102731.73
2022-09-06T04:20:59.351Z,102732.71
2022-09-06T04:23:29.075Z,102728.73
2022-09-06T04:25:59.310Z,102734.73
2022-09-06T04:28:28.270Z,102729.96
2022-09-06T04:31:03.950Z,102728.86
2022-09-06T04:33:35.203Z,102722.33
2022-09-06T04:36:06.588Z,102693.16
2022-09-06T04:38:40.409Z,102722.39
2022-09-06T04:41:10.807Z,102720.27
2022-09-06T04:43:39.443Z,102718.63
2022-09-06T04:46:19.442Z,102721.77
2022-09-06T04:48:49.283Z,102721.84
2022-09-06T04:51:18.645Z,102725.16
2022-09-06T04:53:47.676Z,102729.61
2022-09-06T04:56:19.272Z,102730.52
2022-09-06T04:58:49.715Z,102736.04
2022-09-06T05:01:18.007Z,102729.12
2022-09-06T05:03:47.444Z,102727.39
2022-09-06T05:06:22.006Z,102724.95
2022-09-06T05:08:51.039Z,102721.73
2022-09-06T05:11:19.851Z,102719.73
2022-09-06T05:13:48.283Z,102718.30
2022-09-06T05:16:17.121Z,102717.27
2022-09-06T05:18:45.393Z,102724.07
2022-09-06T05:21:16.899Z,102724.29
2022-09-06T05:23:45.255Z,102727.86
2022-09-06T05:26:13.423Z,102714.64
2022-09-06T05:28:41.651Z,102725.95
2022-09-06T05:31:13.031Z,102722.52
2022-09-06T05:33:41.230Z,102725.73
2022-09-06T05:36:10.370Z,102724.07
2022-09-06T05:38:38.589Z,102726.52
2022-09-06T05:41:06.732Z,102720.54
2022-09-06T05:43:34.955Z,102715.50
2022-09-06T05:46:07.046Z,102716.64
2022-09-06T05:48:37.239Z,102713.80
2022-09-06T05:51:15.843Z,102716.47
2022-09-06T05:53:45.779Z,102714.89
2022-09-06T05:56:15.604Z,102715.48
2022-09-06T05:58:44.075Z,102719.78
2022-09-06T06:01:17.452Z,102718.39
2022-09-06T06:03:57.663Z,102717.48
2022-09-06T06:06:28.014Z,102714.15
2022-09-06T06:08:56.855Z,102716.32
2022-09-06T06:11:27.023Z,102691.02
2022-09-06T06:13:55.412Z,102707.61
2022-09-06T06:16:23.808Z,102719.42
2022-09-06T06:18:52.825Z,102723.33
2022-09-06T06:21:26.986Z,102721.14
2022-09-06T06:23:58.539Z,102722.11
2022-09-06T06:26:28.387Z,102705.38
2022-09-06T06:28:59.079Z,102717.70
2022-09-06T06:31:28.280Z,102717.84
2022-09-06T06:33:56.764Z,102717.20
2022-09-06T06:36:27.423Z,102719.86
2022-09-06T06:38:56.184Z,102706.05
2022-09-06T06:41:26.674Z,102704.02
2022-09-06T06:43:56.830Z,102714.66
2022-09-06T06:46:28.218Z,102694.86
2022-09-06T06:48:56.529Z,102710.20
2022-09-06T06:51:27.263Z,102710.67
2022-09-06T06:54:00.187Z,102694.96
2022-09-06T06:56:37.324Z,102706.02
2022-09-06T06:59:07.996Z,102704.27
2022-09-06T07:01:37.087Z,102704.60
2022-09-06T07:04:05.988Z,102703.91
2022-09-06T07:12:32.594Z,102693.83
2022-09-06T07:15:01.016Z,102700.41
2022-09-06T07:17:29.698Z,102700.15
2022-09-06T07:20:14.134Z,102699.12
2022-09-06T07:22:43.524Z,102698.80
2022-09-06T07:25:17.625Z,102684.52
2022-09-06T07:27:49.728Z,102697.76
2022-09-06T07:30:20.319Z,102700.46
2022-09-06T07:32:49.157Z,102694.52
2022-09-06T07:35:17.776Z,102690.95
2022-09-06T07:37:56.949Z,102682.94
2022-09-06T07:40:27.102Z,102692.33
2022-09-06T07:42:59.590Z,102692.52
2022-09-06T07:45:27.992Z,102695.08
2022-09-06T07:47:59.789Z,102695.76
2022-09-06T07:50:47.502Z,102690.85
2022-09-06T07:53:24.613Z,102688.56
2022-09-06T07:55:58.114Z,102685.77
2022-09-06T07:58:26.538Z,102688.31
2022-09-06T08:00:54.992Z,102648.10
2022-09-06T08:03:23.457Z,102682.16
2022-09-06T08:11:27.872Z,102670.67
2022-09-06T08:13:57.624Z,102671.60
2022-09-06T08:16:28.289Z,102668.79
2022-09-06T08:18:59.308Z,102666.64
2022-09-06T08:21:30.775Z,102668.67
2022-09-06T08:24:01.317Z,102667.15
2022-09-06T08:26:31.976Z,102658.39
2022-09-06T08:29:02.704Z,102662.56
2022-09-06T08:31:32.856Z,102665.48
2022-09-06T08:34:01.988Z,102667.73
2022-09-06T08:36:31.104Z,102664.97
2022-09-06T08:39:01.365Z,102663.73
2022-09-06T08:42:03.860Z,102635.40
2022-09-06T08:44:58.571Z,102661.10
2022-09-06T08:47:27.414Z,102663.27
2022-09-06T08:50:03.588Z,102653.13
2022-09-06T08:53:20.474Z,102654.04
2022-09-06T08:55:55.170Z,102648.26
2022-09-06T08:58:40.982Z,102651.45
2022-09-06T09:01:17.454Z,102644.75
2022-09-06T09:03:47.202Z,102644.12
2022-09-06T09:06:15.544Z,102646.73
2022-09-06T09:09:02.191Z,102647.94
2022-09-06T09:11:33.576Z,102643.93
2022-09-06T09:14:23.452Z,102642.53
2022-09-06T09:16:53.483Z,102633.55
2022-09-06T09:19:22.012Z,102631.94
2022-09-06T09:21:50.272Z,102619.87
2022-09-06T09:24:18.507Z,102630.05
2022-09-06T09:27:03.643Z,102626.30
2022-09-06T09:29:36.144Z,102620.21
2022-09-06T09:32:04.906Z,102621.17
2022-09-06T09:34:38.948Z,102612.58
2022-09-06T09:40:25.500Z,102607.36
2022-09-06T09:42:57.772Z,102607.84
2022-09-06T09:45:31.027Z,102608.23
2022-09-06T09:48:17.683Z,102605.41
2022-09-06T09:50:45.960Z,102606.05
2022-09-06T09:53:17.256Z,102601.99
2022-09-06T09:55:47.072Z,102603.45
2022-09-06T09:58:35.848Z,102610.64
2022-09-06T10:01:33.896Z,102607.38
2022-09-06T10:07:15.867Z,102594.29
2022-09-06T10:09:48.218Z,102592.67
2022-09-06T10:12:32.672Z,102594.80
2022-09-06T10:15:04.948Z,102588.98
2022-09-06T10:17:52.034Z,102582.77
2022-09-06T10:20:24.987Z,102579.02
2022-09-06T10:23:13.975Z,102578.30
2022-09-06T10:26:17.208Z,102577.82
2022-09-06T10:28:47.243Z,102572.55
2022-09-06T10:31:43.717Z,102572.45
2022-09-06T10:34:31.336Z,102569.99
2022-09-06T10:37:26.631Z,102568.77
2022-09-06T10:40:08.839Z,102558.42
2022-09-06T10:42:45.702Z,102566.26
2022-09-06T10:45:33.183Z,102565.01
2022-09-06T10:48:14.977Z,102559.22
2022-09-06T10:50:48.371Z,102558.89
2022-09-06T10:53:27.492Z,102561.06
2022-09-06T10:56:06.685Z,102571.90
2022-09-06T11:01:41.609Z,102570.27
2022-09-06T11:04:20.286Z,102564.70
2022-09-06T11:06:53.567Z,102565.10
2022-09-06T11:09:21.638Z,102559.38
2022-09-06T11:12:16.099Z,102549.96
2022-09-06T11:14:44.556Z,102544.44
2022-09-06T11:17:26.538Z,102545.06
2022-09-06T11:20:06.070Z,102544.50
2022-09-06T11:22:46.891Z,102540.65
2022-09-06T11:25:14.916Z,102536.73
2022-09-06T11:27:47.152Z,102530.24
2022-09-06T11:30:17.663Z,102531.39
2022-09-06T11:32:50.346Z,102526.64
2022-09-06T11:35:32.344Z,102521.16
2022-09-06T11:38:26.728Z,102520.51
2022-09-06T11:41:02.801Z,102513.34
2022-09-06T11:43:47.378Z,102510.59
2022-09-06T11:46:33.922Z,102502.62
2022-09-06T11:49:35.454Z,102499.58
2022-09-06T11:52:52.388Z,102500.35
2022-09-06T11:55:25.154Z,102495.27
2022-09-06T11:57:57.275Z,102495.56
2022-09-06T12:00:27.812Z,102495.21
2022-09-06T12:06:19.299Z,102488.08
2022-09-06T12:08:50.446Z,102482.15
2022-09-06T12:11:37.514Z,102474.98
2022-09-06T12:14:09.659Z,102452.41
2022-09-06T12:16:55.970Z,102476.08
2022-09-06T12:19:47.918Z,102471.85
2022-09-06T12:22:36.009Z,102470.36
2022-09-06T12:25:08.083Z,102471.93
2022-09-06T12:27:50.190Z,102458.05
2022-09-06T12:30:42.244Z,102460.02
2022-09-06T12:33:19.454Z,102457.77
2022-09-06T12:38:25.444Z,102450.23
2022-09-06T12:40:59.255Z,102442.35
2022-09-06T12:43:27.721Z,102439.95
2022-09-06T12:45:56.461Z,102420.50
2022-09-06T12:48:33.794Z,102435.73
2022-09-06T12:51:08.190Z,102431.33
2022-09-06T12:53:37.109Z,102431.41
2022-09-06T12:56:08.029Z,102426.41
2022-09-06T12:58:38.910Z,102424.83
2022-09-06T13:01:16.837Z,102427.38
2022-09-06T13:04:16.561Z,102422.17
2022-09-06T13:06:47.846Z,102418.42
2022-09-06T13:09:20.654Z,102417.73
2022-09-06T13:11:52.422Z,102415.15
2022-09-06T13:14:29.961Z,102408.00
2022-09-06T13:16:58.469Z,102410.47
2022-09-06T13:19:37.521Z,102409.47
2022-09-06T13:22:08.458Z,102405.38
2022-09-06T13:24:43.309Z,102404.09
2022-09-06T13:27:23.170Z,102401.58
2022-09-06T13:30:04.058Z,102401.84
2022-09-06T13:32:34.186Z,102402.23
2022-09-06T13:35:04.533Z,102402.31
2022-09-06T13:37:35.870Z,102400.69
2022-09-06T13:41:15.878Z,102397.92
2022-09-06T13:43:48.734Z,102396.46
2022-09-06T13:46:17.207Z,102398.01
2022-09-06T13:48:45.789Z,102398.30
2022-09-06T13:51:14.152Z,102395.73
2022-09-06T13:53:42.474Z,102395.55
2022-09-06T13:56:12.169Z,102397.71
2022-09-06T13:58:40.481Z,102391.05
2022-09-06T14:01:11.751Z,102387.88
2022-09-06T14:03:42.346Z,102389.23
2022-09-06T14:06:11.017Z,102386.14
2022-09-06T14:09:05.433Z,102381.85
2022-09-06T14:11:28.321Z,102381.45
2022-09-06T14:13:56.835Z,102377.79
2022-09-06T14:16:25.480Z,102378.33
2022-09-06T14:18:53.882Z,102376.95
2022-09-06T14:21:22.717Z,102375.69
2022-09-06T14:23:52.845Z,102366.09
2022-09-06T14:26:23.332Z,102368.23
2022-09-06T14:28:51.798Z,102361.91
2022-09-06T14:31:23.118Z,102362.96
2022-09-06T14:33:52.547Z,102362.52
2022-09-06T14:36:23.611Z,102364.98
2022-09-06T14:38:53.085Z,102343.30
2022-09-06T14:41:21.809Z,102353.99
2022-09-06T14:43:54.478Z,102355.49
2022-09-06T14:46:24.282Z,102355.31
2022-09-06T14:49:06.230Z,102354.53
2022-09-06T14:51:35.661Z,102350.55
2022-09-06T14:54:09.770Z,102352.09
2022-09-06T14:56:40.566Z,102348.21
2022-09-06T14:59:09.420Z,102348.36
2022-09-06T15:01:39.716Z,102343.18
2022-09-06T15:04:10.306Z,102341.02
2022-09-06T15:06:40.858Z,102339.80
2022-09-06T15:09:11.732Z,102336.76
2022-09-06T15:11:42.004Z,102333.11
2022-09-06T15:14:19.067Z,102315.42
2022-09-06T15:16:54.774Z,102331.34
2022-09-06T15:19:26.039Z,102329.85
2022-09-06T15:21:55.719Z,102325.41
2022-09-06T15:24:24.630Z,102305.95
2022-09-06T15:26:53.783Z,102326.56
2022-09-06T15:29:22.766Z,102311.35
2022-09-06T15:31:52.063Z,102321.61
2022-09-06T15:34:22.438Z,102317.91
2022-09-06T15:36:52.107Z,102322.00
2022-09-06T15:39:21.467Z,102322.27
2022-09-06T15:41:52.391Z,102306.94
2022-09-06T15:44:21.837Z,102313.44
2022-09-06T15:46:53.492Z,102315.92
2022-09-06T15:49:28.520Z,102315.39
2022-09-06T15:52:02.326Z,102310.96
2022-09-06T15:54:49.417Z,102308.95
2022-09-06T15:57:17.892Z,102308.75
2022-09-06T15:59:46.553Z,102307.41
2022-09-06T16:02:14.981Z,102312.32
2022-09-06T16:04:43.412Z,102311.21
2022-09-06T16:07:12.040Z,102309.27
2022-09-06T16:09:40.668Z,102313.91
2022-09-06T16:12:09.963Z,102305.76
2022-09-06T16:14:38.351Z,102312.63
2022-09-06T16:17:06.752Z,102308.93
2022-09-06T16:19:35.301Z,102311.60
2022-09-06T16:22:04.537Z,102305.98
2022-09-06T16:24:33.076Z,102304.02
2022-09-06T16:27:01.534Z,102302.85
2022-09-06T16:29:30.552Z,102293.19
2022-09-06T16:32:00.819Z,102261.56
2022-09-06T16:34:29.418Z,102302.27
2022-09-06T16:36:57.846Z,102284.36
2022-09-06T16:39:26.354Z,102303.82
2022-09-06T16:41:54.819Z,102305.28
2022-09-06T16:44:23.164Z,102308.75
2022-09-06T16:46:53.151Z,102308.37
2022-09-06T16:49:22.039Z,102291.48
2022-09-06T16:51:50.811Z,102307.20
2022-09-06T16:54:19.791Z,102306.32
2022-09-06T16:56:48.545Z,102289.55
2022-09-06T16:59:17.545Z,102298.85
2022-09-06T17:01:47.140Z,102298.10
2022-09-06T17:04:15.797Z,102298.02
2022-09-06T17:06:44.920Z,102300.63
2022-09-06T17:09:20.158Z,102302.83
2022-09-06T17:11:52.016Z,102308.02
2022-09-06T17:14:20.351Z,102307.20
2022-09-06T17:17:07.649Z,102302.09
2022-09-06T17:19:44.124Z,102311.63
2022-09-06T17:22:13.229Z,102294.09
2022-09-06T17:24:42.182Z,102309.96
2022-09-06T17:27:10.629Z,102309.60
2022-09-06T17:29:40.293Z,102311.64
2022-09-06T17:32:11.608Z,102313.75
2022-09-06T17:34:40.308Z,102312.56
2022-09-06T17:37:08.763Z,102313.73
2022-09-06T17:39:37.572Z,102309.97
2022-09-06T17:42:06.420Z,102316.29
2022-09-06T17:44:35.400Z,102317.20
2022-09-06T17:47:13.338Z,102318.26
2022-09-06T17:49:42.779Z,102316.53
2022-09-06T17:52:11.903Z,102316.48
2022-09-06T17:54:40.284Z,102314.52
2022-09-06T17:57:08.668Z,102314.48
2022-09-06T17:59:38.353Z,102318.09
2022-09-06T18:02:06.809Z,102287.78
2022-09-06T18:04:35.374Z,102318.98
2022-09-06T18:07:03.856Z,102299.36
2022-09-06T18:09:32.312Z,102322.41
2022-09-06T18:12:01.135Z,102324.39
2022-09-06T18:14:29.737Z,102325.95
2022-09-06T18:16:58.147Z,102332.44
2022-09-06T18:19:27.685Z,102332.98
2022-09-06T18:21:57.515Z,102335.55
2022-09-06T18:24:26.606Z,102332.48
2022-09-06T18:26:55.805Z,102327.55
2022-09-06T18:29:24.180Z,102306.20
2022-09-06T18:31:54.296Z,102325.66
2022-09-06T18:34:23.045Z,102319.38
2022-09-06T18:36:51.640Z,102305.48
2022-09-06T18:39:20.537Z,102334.13
2022-09-06T18:42:00.972Z,102334.68
2022-09-06T18:44:32.505Z,102336.38
2022-09-06T18:47:03.429Z,102336.27
2022-09-06T18:49:33.827Z,102331.36
2022-09-06T18:52:06.379Z,102328.62
2022-09-06T18:54:35.234Z,102314.80
2022-09-06T18:57:04.189Z,102326.88
2022-09-06T18:59:32.419Z,102330.45
2022-09-06T19:02:00.690Z,102330.52
2022-09-06T19:04:29.259Z,102325.47
2022-09-06T19:06:57.706Z,102327.27
2022-09-06T19:09:26.528Z,102321.55
2022-09-06T19:11:55.909Z,102295.52
2022-09-06T19:14:24.517Z,102323.76
2022-09-06T19:16:54.295Z,102322.79
2022-09-06T19:19:23.405Z,102317.48
2022-09-06T19:21:51.715Z,102319.39
2022-09-06T19:24:22.927Z,102317.27
2022-09-06T19:26:52.991Z,102300.04
2022-09-06T19:29:21.714Z,102317.44
2022-09-06T19:31:50.168Z,102312.95
2022-09-06T19:34:19.075Z,102310.39
2022-09-06T19:36:47.314Z,102278.04
2022-09-06T19:39:16.885Z,102304.38
2022-09-06T19:41:47.641Z,102299.52
2022-09-06T19:44:17.302Z,102304.52
2022-09-06T19:46:47.562Z,102291.17
2022-09-06T19:49:17.797Z,102299.59
2022-09-06T19:51:49.004Z,102302.83
2022-09-06T19:54:18.245Z,102297.80
2022-09-06T19:56:52.150Z,102294.63
2022-09-06T19:59:21.881Z,102293.38
2022-09-06T20:01:50.339Z,102295.91
2022-09-06T20:04:20.098Z,102291.77
2022-09-06T20:06:48.343Z,102293.45
2022-09-06T20:09:16.786Z,102293.94
2022-09-06T20:11:46.622Z,102273.77
2022-09-06T20:14:15.074Z,102290.01
2022-09-06T20:16:43.391Z,102291.98
2022-09-06T20:19:12.984Z,102291.00
2022-09-06T20:21:41.530Z,102287.63
2022-09-06T20:24:09.802Z,102274.98
2022-09-06T20:26:38.176Z,102286.75
2022-09-06T20:29:08.184Z,102288.33
2022-09-06T20:31:38.155Z,102285.88
2022-09-06T20:34:07.533Z,102292.73
2022-09-06T20:36:36.331Z,102292.48
2022-09-06T20:39:05.946Z,102278.58
2022-09-06T20:41:34.209Z,102275.18
2022-09-06T20:44:02.842Z,102289.64
2022-09-06T20:46:34.056Z,102286.35
2022-09-06T20:49:04.965Z,102287.74
2022-09-06T20:51:35.478Z,102285.85
2022-09-06T20:54:05.366Z,102286.91
2022-09-06T20:56:36.730Z,102271.92
2022-09-06T20:59:10.509Z,102283.62
2022-09-06T21:01:43.067Z,102281.55
2022-09-06T21:04:13.113Z,102279.91
2022-09-06T21:06:42.349Z,102263.03
2022-09-06T21:09:13.438Z,102281.02
2022-09-06T21:11:42.774Z,102280.39
2022-09-06T21:14:11.902Z,102280.50
2022-09-06T21:16:40.928Z,102280.38
2022-09-06T21:19:10.566Z,102284.45
2022-09-06T21:21:39.909Z,102285.34
2022-09-06T21:24:11.053Z,102283.55
2022-09-06T21:26:39.518Z,102281.23
2022-09-06T21:29:07.896Z,102268.23
2022-09-06T21:31:37.856Z,102263.31
2022-09-06T21:34:15.567Z,102277.99
2022-09-06T21:36:45.664Z,102274.02
2022-09-06T21:39:15.073Z,102271.74
2022-09-06T21:41:43.891Z,102273.92
2022-09-06T21:44:13.199Z,102270.60
2022-09-06T21:46:43.830Z,102269.37
2022-09-06T21:49:14.277Z,102273.65
2022-09-06T21:51:43.832Z,102272.11
2022-09-06T21:54:12.456Z,102272.41
2022-09-06T21:56:41.567Z,102263.16
2022-09-06T21:59:11.178Z,102270.44
2022-09-06T22:01:41.075Z,102270.80
2022-09-06T22:04:10.634Z,102276.95
2022-09-06T22:06:39.102Z,102276.77
2022-09-06T22:09:11.670Z,102279.97
2022-09-06T22:11:42.921Z,102278.77
2022-09-06T22:14:13.945Z,102279.59
2022-09-06T22:16:42.759Z,102276.77
2022-09-06T22:19:11.900Z,102264.09
2022-09-06T22:21:40.746Z,102270.64
2022-09-06T22:24:11.893Z,102267.92
2022-09-06T22:26:41.274Z,102263.02
2022-09-06T22:29:11.798Z,102261.08
2022-09-06T22:31:41.041Z,102258.70
2022-09-06T22:34:10.700Z,102259.94
2022-09-06T22:36:40.152Z,102263.72
2022-09-06T22:39:09.716Z,102264.55
2022-09-06T22:41:38.343Z,102262.70
2022-09-06T22:44:07.497Z,102261.26
2022-09-06T22:46:37.515Z,102250.39
2022-09-06T22:49:06.472Z,102263.88
2022-09-06T22:51:35.418Z,102264.00
2022-09-06T22:54:04.812Z,102263.95
2022-09-06T22:56:33.756Z,102265.77
2022-09-06T22:59:02.678Z,102263.94
2022-09-06T23:01:32.895Z,102260.88
2022-09-06T23:04:01.406Z,102247.20
2022-09-06T23:06:30.250Z,102250.05
2022-09-06T23:08:59.450Z,102246.84
2022-09-06T23:11:28.745Z,102241.29
2022-09-06T23:13:58.837Z,102234.23
2022-09-06T23:16:28.546Z,102241.16
2022-09-06T23:18:57.025Z,102233.91
2022-09-06T23:21:26.155Z,102216.13
2022-09-06T23:23:56.461Z,102229.16
2022-09-06T23:26:29.092Z,102232.10
2022-09-06T23:28:58.393Z,102217.29
2022-09-06T23:31:29.654Z,102225.60
2022-09-06T23:34:00.914Z,102227.21
2022-09-06T23:36:29.737Z,102225.65
2022-09-06T23:38:58.751Z,102225.59
2022-09-06T23:41:27.168Z,102224.98
2022-09-06T23:43:55.528Z,102221.16
2022-09-06T23:46:23.870Z,102219.44
2022-09-06T23:48:52.931Z,102220.46
2022-09-06T23:51:22.304Z,102217.80
2022-09-06T23:53:50.826Z,102219.41
2022-09-06T23:56:19.512Z,102224.42
2022-09-06T23:58:47.858Z,102223.14
